Time;durP1;ratioP1;P1;durP2;ratioP2;P2;SDS_P1;SDS_P2;PMS_P1;PMS_P2;Temp;Humidity;BMP_temperature;BMP_pressure;BME280_temperature;BME280_humidity;BME280_pressure;Samples;Min_cycle;Max_cycle;Signal;HPM_P1;HPM_P2
2024/04/05 00:01:29;;;;;;;5.50;1.60;;;;;;;12.26;90.10;95523.91;5060598;28;20643;-81
2024/04/05 00:03:55;;;;;;;2.93;1.40;;;;;;;12.19;90.88;95519.34;5078569;28;20185;-82
2024/04/05 00:06:20;;;;;;;5.07;1.80;;;;;;;11.91;92.95;95518.72;5081403;28;20186;-81
2024/04/05 00:08:46;;;;;;;4.33;1.60;;;;;;;11.90;93.10;95517.09;5059352;28;20675;-81
2024/04/05 00:11:11;;;;;;;4.70;1.60;;;;;;;12.04;92.18;95518.31;5094278;28;20185;-81
2024/04/05 00:13:36;;;;;;;4.93;1.57;;;;;;;11.96;92.99;95514.88;5078244;28;20188;-81
2024/04/05 00:16:06;;;;;;;4.93;1.90;;;;;;;12.08;92.19;95517.00;5076900;28;20558;-81
2024/04/05 00:18:35;;;;;;;3.30;1.80;;;;;;;12.04;92.20;95504.50;5081442;28;20221;-80
2024/04/05 00:21:04;;;;;;;3.43;1.57;;;;;;;12.08;92.05;95511.81;5059330;28;20212;-81
2024/04/05 00:23:30;;;;;;;5.00;1.90;;;;;;;12.09;91.68;95508.22;5087587;28;20188;-81
2024/04/05 00:25:59;;;;;;;5.13;1.80;;;;;;;12.18;91.54;95509.88;5079089;28;20192;-80
2024/04/05 00:28:25;;;;;;;3.53;1.60;;;;;;;12.15;91.48;95512.81;5076541;28;20204;-80
2024/04/05 00:30:50;;;;;;;5.23;1.40;;;;;;;12.16;91.29;95511.03;5084059;28;20216;-81
2024/04/05 00:33:16;;;;;;;5.47;1.47;;;;;;;12.15;91.42;95515.41;5078674;28;20222;-81
2024/04/05 00:35:50;;;;;;;3.43;1.60;;;;;;;12.18;91.76;95507.28;5073485;28;20193;-80
2024/04/05 00:38:15;;;;;;;3.63;1.40;;;;;;;12.11;91.69;95502.88;5088490;28;20218;-81
2024/04/05 00:40:41;;;;;;;6.50;1.57;;;;;;;12.17;91.51;95505.66;5071046;28;20208;-81
2024/04/05 00:43:06;;;;;;;5.27;1.97;;;;;;;12.18;91.54;95498.66;5066522;28;20295;-81
2024/04/05 00:45:31;;;;;;;3.27;1.67;;;;;;;12.17;90.92;95497.84;5084321;28;20189;-82
2024/04/05 00:47:58;;;;;;;4.77;1.50;;;;;;;12.13;91.41;95496.53;5062747;28;20237;-81
2024/04/05 00:50:23;;;;;;;8.03;1.80;;;;;;;12.09;91.47;95491.81;5065966;28;20184;-79
2024/04/05 00:52:48;;;;;;;5.70;1.43;;;;;;;12.10;91.82;95491.66;5066504;28;20215;-80
2024/04/05 00:55:14;;;;;;;3.77;1.60;;;;;;;12.16;90.93;95493.63;5075943;28;20266;-81
2024/04/05 00:57:39;;;;;;;5.53;1.77;;;;;;;12.15;91.54;95492.00;5072873;28;20211;-82
2024/04/05 01:00:05;;;;;;;4.23;1.67;;;;;;;12.06;91.61;95485.13;5102053;28;20270;-81
2024/04/05 01:02:31;;;;;;;6.37;1.50;;;;;;;12.15;91.68;95486.78;5079356;28;20215;-81
2024/04/05 01:04:56;;;;;;;2.50;1.30;;;;;;;12.08;91.40;95480.56;5080148;28;20657;-81
2024/04/05 01:07:22;;;;;;;6.87;1.83;;;;;;;12.11;91.05;95480.28;5051951;28;20199;-81
2024/04/05 01:09:47;;;;;;;4.87;1.83;;;;;;;12.08;90.64;95482.38;5076340;28;20201;-80
2024/04/05 01:12:12;;;;;;;4.87;1.70;;;;;;;12.03;91.19;95480.25;5090933;28;20197;-80
2024/04/05 01:14:38;;;;;;;4.40;1.63;;;;;;;11.99;91.30;95468.50;5077574;28;20643;-81
2024/04/05 01:17:03;;;;;;;6.10;1.67;;;;;;;12.01;90.77;95471.75;5086174;28;20185;-81
2024/04/05 01:19:28;;;;;;;3.17;1.60;;;;;;;12.01;90.99;95476.16;5089146;28;20205;-81
2024/04/05 01:21:55;;;;;;;4.33;1.50;;;;;;;12.01;90.80;95471.75;5088372;28;20192;-81
2024/04/05 01:24:20;;;;;;;2.97;1.20;;;;;;;12.02;90.76;95478.63;5084541;28;20196;-80
2024/04/05 01:26:46;;;;;;;5.13;1.67;;;;;;;12.07;90.46;95470.31;5066647;28;20218;-81
2024/04/05 01:29:11;;;;;;;3.43;1.40;;;;;;;12.00;90.84;95464.94;5068854;28;20199;-81
2024/04/05 01:31:36;;;;;;;4.60;1.47;;;;;;;12.02;90.09;95472.59;5055997;28;20195;-81
2024/04/05 01:34:02;;;;;;;6.97;1.80;;;;;;;11.91;91.33;95468.47;5086163;28;20192;-81
2024/04/05 01:36:27;;;;;;;4.27;1.70;;;;;;;11.92;90.59;95470.09;5064286;28;20177;-80
2024/04/05 01:38:52;;;;;;;4.13;1.20;;;;;;;11.93;90.44;95470.91;5083607;28;20302;-81
2024/04/05 01:41:22;;;;;;;3.37;1.83;;;;;;;11.84;91.90;95467.50;5071577;28;20262;-81
2024/04/05 01:43:47;;;;;;;3.53;1.57;;;;;;;11.94;91.31;95464.78;5091816;28;20193;-81
2024/04/05 01:46:13;;;;;;;4.00;1.67;;;;;;;11.85;91.86;95462.13;5079603;28;20189;-81
2024/04/05 01:48:38;;;;;;;4.17;1.70;;;;;;;11.88;91.67;95461.00;5083834;28;20621;-81
2024/04/05 01:51:04;;;;;;;5.40;1.90;;;;;;;11.89;91.64;95462.63;5086643;28;20185;-81
2024/04/05 01:53:29;;;;;;;3.10;1.50;;;;;;;11.60;93.53;95463.78;5083419;28;20232;-80
2024/04/05 01:56:00;;;;;;;6.27;1.70;;;;;;;11.63;93.37;95457.44;5074760;28;20189;-81
2024/04/05 01:58:25;;;;;;;4.40;1.60;;;;;;;11.65;93.91;95458.09;5064373;28;20210;-80
2024/04/05 02:00:58;;;;;;;5.53;1.80;;;;;;;11.73;92.62;95470.34;5064680;28;20212;-80
2024/04/05 02:03:24;;;;;;;6.83;1.97;;;;;;;11.61;93.53;95449.81;5099627;28;20185;-81
2024/04/05 02:05:49;;;;;;;3.70;1.70;;;;;;;11.57;93.73;95458.91;5056923;28;20235;-80
2024/04/05 02:08:14;;;;;;;4.03;1.77;;;;;;;11.61;93.74;95460.22;5091520;28;21617;-81
2024/04/05 02:10:40;;;;;;;4.50;1.90;;;;;;;11.62;93.43;95467.03;5096309;28;20250;-81
2024/04/05 02:13:05;;;;;;;4.43;2.20;;;;;;;11.56;93.45;95462.44;5080285;28;20187;-80
2024/04/05 02:15:31;;;;;;;4.13;1.80;;;;;;;11.44;94.62;95460.28;5073810;28;20651;-81
2024/04/05 02:17:57;;;;;;;7.00;1.77;;;;;;;11.58;93.24;95450.13;5093729;28;20192;-81
2024/04/05 02:20:22;;;;;;;5.07;1.83;;;;;;;11.63;93.20;95463.47;5089999;28;20225;-81
2024/04/05 02:22:48;;;;;;;3.13;1.83;;;;;;;11.56;94.11;95459.03;5077819;28;20180;-80
2024/04/05 02:25:13;;;;;;;3.27;2.00;;;;;;;11.62;93.15;95467.03;5081342;28;20276;-80
2024/04/05 02:27:38;;;;;;;4.63;1.60;;;;;;;11.59;93.80;95461.34;5060863;28;20192;-81
2024/04/05 02:30:06;;;;;;;5.53;2.00;;;;;;;11.62;93.35;95461.84;5075009;28;20208;-78
2024/04/05 02:32:31;;;;;;;5.17;1.90;;;;;;;11.57;93.89;95461.50;5052852;28;20279;-79
2024/04/05 02:34:57;;;;;;;6.77;1.97;;;;;;;11.57;93.30;95466.72;5080530;28;20223;-79
2024/04/05 02:37:22;;;;;;;5.50;2.13;;;;;;;11.52;94.00;95470.75;5059903;28;20188;-80
2024/04/05 02:39:47;;;;;;;4.10;1.83;;;;;;;11.44;95.02;95462.91;5073928;28;20230;-80
2024/04/05 02:42:13;;;;;;;5.47;2.03;;;;;;;11.38;95.48;95469.50;5062358;28;20271;-80
2024/04/05 02:44:38;;;;;;;4.67;2.00;;;;;;;11.47;94.65;95468.59;5084086;28;20305;-79
2024/04/05 02:47:03;;;;;;;5.23;2.07;;;;;;;11.49;94.71;95471.88;5055789;28;20189;-79
2024/04/05 02:49:29;;;;;;;5.93;2.30;;;;;;;11.56;94.33;95478.06;5077380;28;20211;-80
2024/04/05 02:51:54;;;;;;;5.90;2.27;;;;;;;11.58;94.44;95468.34;5096684;28;20207;-79
2024/04/05 02:54:19;;;;;;;3.43;1.87;;;;;;;11.66;93.67;95475.38;5069120;28;20187;-80
2024/04/05 02:56:45;;;;;;;4.83;2.20;;;;;;;11.61;94.13;95486.22;5050218;28;20189;-79
2024/04/05 02:59:10;;;;;;;5.57;2.30;;;;;;;11.49;94.34;95487.47;5080384;28;20218;-79
2024/04/05 03:01:35;;;;;;;4.37;2.23;;;;;;;11.58;94.45;95481.34;5075363;28;20665;-79
2024/04/05 03:04:02;;;;;;;3.63;2.13;;;;;;;11.60;94.58;95489.81;5062334;28;20528;-81
2024/04/05 03:06:27;;;;;;;7.00;2.57;;;;;;;11.61;93.96;95491.44;5066476;28;20654;-80
2024/04/05 03:08:53;;;;;;;5.20;2.10;;;;;;;11.63;94.39;95483.47;5059655;28;20208;-79
2024/04/05 03:11:18;;;;;;;5.03;2.27;;;;;;;11.61;93.48;95478.41;5092842;28;20669;-79
2024/04/05 03:13:43;;;;;;;5.27;2.20;;;;;;;11.67;93.85;95484.81;5092101;28;20209;-79
2024/04/05 03:16:09;;;;;;;5.30;2.30;;;;;;;11.61;93.14;95473.22;5055402;28;20298;-79
2024/04/05 03:18:34;;;;;;;4.97;2.43;;;;;;;11.56;94.02;95472.84;5083838;28;20240;-80
2024/04/05 03:20:59;;;;;;;6.47;2.13;;;;;;;11.59;94.00;95466.56;5076736;28;20225;-80
2024/04/05 03:23:25;;;;;;;5.60;2.20;;;;;;;11.43;94.20;95467.28;5074074;28;20814;-80
2024/04/05 03:25:50;;;;;;;7.87;2.60;;;;;;;11.56;94.21;95467.66;5079869;28;20649;-80
2024/04/05 03:28:15;;;;;;;4.33;2.33;;;;;;;11.51;94.09;95467.31;5084832;28;20256;-80
2024/04/05 03:30:41;;;;;;;4.83;2.00;;;;;;;11.56;93.47;95459.84;5055337;28;20185;-80
2024/04/05 03:33:07;;;;;;;3.93;2.20;;;;;;;11.59;93.49;95456.97;5062503;28;20188;-80
2024/04/05 03:35:41;;;;;;;6.00;2.00;;;;;;;11.59;93.11;95456.97;5077636;28;20177;-81
2024/04/05 03:38:07;;;;;;;4.07;2.20;;;;;;;11.48;93.05;95451.19;5077307;28;20188;-81
2024/04/05 03:40:41;;;;;;;8.10;2.43;;;;;;;11.55;93.27;95450.44;5055280;28;20287;-81
2024/04/05 03:43:07;;;;;;;4.03;2.10;;;;;;;11.47;93.57;95441.78;5060665;28;20247;-80
2024/04/05 03:45:33;;;;;;;5.03;2.40;;;;;;;11.54;93.52;95443.59;5058293;28;20193;-81
2024/04/05 03:47:58;;;;;;;6.30;2.23;;;;;;;11.54;92.77;95441.00;5060454;28;20181;-80
2024/04/05 03:50:23;;;;;;;2.40;1.80;;;;;;;11.54;92.43;95437.59;5075219;28;20199;-80
2024/04/05 03:52:49;;;;;;;4.80;2.00;;;;;;;11.59;92.43;95446.56;5062026;28;20189;-80
2024/04/05 03:55:14;;;;;;;4.73;2.43;;;;;;;11.53;92.80;95456.75;5064173;28;20635;-80
2024/04/05 03:57:42;;;;;;;5.10;1.93;;;;;;;11.53;92.72;95456.75;5051310;28;20608;-80
2024/04/05 04:00:08;;;;;;;3.67;2.30;;;;;;;11.58;92.25;95454.53;5077530;28;20213;-81
2024/04/05 04:02:34;;;;;;;6.20;2.03;;;;;;;11.61;92.25;95460.22;5091830;28;20191;-80
2024/04/05 04:04:59;;;;;;;4.60;2.00;;;;;;;11.57;92.60;95471.91;5092708;28;20193;-80
2024/04/05 04:07:24;;;;;;;4.07;1.90;;;;;;;11.54;92.30;95474.00;5089075;28;20582;-81
2024/04/05 04:09:49;;;;;;;3.33;1.67;;;;;;;11.53;92.55;95469.75;5062895;28;20221;-79
2024/04/05 04:12:15;;;;;;;1.73;1.63;;;;;;;11.60;92.21;95468.19;5084225;28;20184;-79
2024/04/05 04:14:44;;;;;;;4.30;1.93;;;;;;;11.60;92.11;95469.00;5075152;28;20189;-80
2024/04/05 04:17:09;;;;;;;5.13;2.30;;;;;;;11.56;91.88;95462.44;5060486;28;20310;-80
2024/04/05 04:19:35;;;;;;;4.67;1.80;;;;;;;11.58;92.49;95459.72;5061392;28;20703;-80
2024/04/05 04:22:01;;;;;;;3.70;2.10;;;;;;;11.53;92.53;95454.16;5053615;28;20189;-81
2024/04/05 04:24:26;;;;;;;3.57;1.97;;;;;;;11.55;92.71;95450.44;5084338;28;20549;-80
2024/04/05 04:26:51;;;;;;;4.67;1.93;;;;;;;11.52;92.43;95442.94;5090759;28;20195;-79
2024/04/05 04:29:17;;;;;;;2.93;2.30;;;;;;;11.56;92.45;95444.25;5096278;28;20210;-80
2024/04/05 04:31:42;;;;;;;4.67;2.70;;;;;;;11.48;92.37;95443.41;5049323;28;20194;-80
2024/04/05 04:34:08;;;;;;;5.40;2.37;;;;;;;11.46;92.55;95446.16;5071990;28;20188;-78
2024/04/05 04:36:33;;;;;;;5.20;2.33;;;;;;;11.46;92.83;95445.34;5073088;28;20177;-78
2024/04/05 04:38:59;;;;;;;4.13;2.67;;;;;;;11.49;92.96;95453.66;5052350;28;20245;-80
2024/04/05 04:41:24;;;;;;;6.57;2.57;;;;;;;11.40;92.85;95456.38;5073774;28;20181;-79
2024/04/05 04:43:52;;;;;;;8.40;2.30;;;;;;;11.40;92.74;95462.41;5073988;28;20197;-80
2024/04/05 04:46:18;;;;;;;4.17;2.23;;;;;;;11.41;92.97;95458.00;5082146;28;20182;-79
2024/04/05 04:48:43;;;;;;;6.83;3.03;;;;;;;11.38;92.92;95466.91;5053457;28;20201;-80
2024/04/05 04:51:10;;;;;;;6.50;2.93;;;;;;;11.43;91.40;95462.09;5059536;28;20308;-80
2024/04/05 04:53:36;;;;;;;4.30;2.83;;;;;;;11.43;92.83;95462.09;5075933;28;20177;-79
2024/04/05 04:56:01;;;;;;;8.93;3.33;;;;;;;11.40;92.07;95465.00;5066491;28;20184;-80
2024/04/05 04:58:29;;;;;;;8.33;3.13;;;;;;;11.38;92.63;95466.91;5070580;28;20239;-80
2024/04/05 05:00:56;;;;;;;9.53;4.30;;;;;;;11.38;92.18;95455.69;5095504;28;20200;-79
2024/04/05 05:03:21;;;;;;;7.63;4.13;;;;;;;11.34;92.03;95466.41;5080772;28;20276;-79
2024/04/05 05:05:47;;;;;;;11.50;5.27;;;;;;;11.31;91.51;95478.91;5078387;28;20591;-80
2024/04/05 05:08:12;;;;;;;7.97;4.10;;;;;;;11.26;92.00;95475.97;5069028;28;20179;-79
2024/04/05 05:10:38;;;;;;;4.80;2.67;;;;;;;11.27;92.88;95472.38;5049037;28;20187;-80
2024/04/05 05:13:10;;;;;;;5.07;3.57;;;;;;;11.35;92.29;95477.63;5072461;28;20184;-80
2024/04/05 05:15:36;;;;;;;15.87;5.73;;;;;;;11.33;92.05;95472.59;5052885;28;20181;-80
2024/04/05 05:18:01;;;;;;;20.60;5.80;;;;;;;11.31;92.02;95469.34;5079271;28;20188;-80
2024/04/05 05:20:26;;;;;;;20.83;5.80;;;;;;;11.35;91.90;95468.06;5068516;28;20208;-80
2024/04/05 05:22:58;;;;;;;23.20;5.80;;;;;;;11.35;92.37;95470.66;5076603;28;20243;-80
2024/04/05 05:25:24;;;;;;;17.93;5.50;;;;;;;11.36;91.84;95471.47;5057278;28;20204;-80
2024/04/05 05:27:49;;;;;;;7.23;3.20;;;;;;;11.44;91.46;95466.31;5077099;28;20673;-77
2024/04/05 05:30:15;;;;;;;15.43;5.37;;;;;;;11.38;91.06;95466.09;5085499;28;20211;-79
2024/04/05 05:32:41;;;;;;;14.63;5.80;;;;;;;11.46;91.36;95463.53;5079818;28;20191;-78
2024/04/05 05:35:07;;;;;;;18.47;7.10;;;;;;;11.37;91.63;95459.28;5068308;28;20189;-78
2024/04/05 05:37:32;;;;;;;17.13;7.00;;;;;;;11.52;90.99;95460.34;5083355;28;20218;-79
2024/04/05 05:39:58;;;;;;;15.60;5.00;;;;;;;11.52;91.13;95450.75;5094677;28;20565;-79
2024/04/05 05:42:27;;;;;;;16.30;5.57;;;;;;;11.66;90.61;95456.31;5074218;28;20637;-78
2024/04/05 05:44:52;;;;;;;20.30;7.30;;;;;;;11.78;89.84;95462.88;5063099;28;20708;-78
2024/04/05 05:47:18;;;;;;;20.97;6.50;;;;;;;11.76;90.01;95464.84;5070814;28;20204;-79
2024/04/05 05:49:44;;;;;;;20.20;5.40;;;;;;;11.76;89.68;95475.25;5061735;28;20295;-79
2024/04/05 05:52:10;;;;;;;15.07;4.83;;;;;;;11.77;89.48;95467.28;5061286;28;20712;-79
2024/04/05 05:54:35;;;;;;;14.60;4.90;;;;;;;11.83;89.75;95460.66;5081578;28;20651;-80
2024/04/05 05:57:02;;;;;;;17.20;5.00;;;;;;;11.86;89.64;95462.94;5086159;28;20186;-79
2024/04/05 05:59:28;;;;;;;12.03;4.20;;;;;;;11.89;89.81;95465.22;5058925;28;20312;-79
2024/04/05 06:01:53;;;;;;;11.53;3.80;;;;;;;11.99;89.02;95473.72;5080734;28;20200;-78
2024/04/05 06:04:18;;;;;;;6.33;2.70;;;;;;;12.03;88.64;95482.03;5067707;28;20198;-78
2024/04/05 06:06:44;;;;;;;4.13;2.30;;;;;;;11.87;89.97;95480.19;5076771;28;20197;-79
2024/04/05 06:09:09;;;;;;;5.67;2.40;;;;;;;11.94;89.13;95477.78;5083346;28;20211;-78
2024/04/05 06:11:34;;;;;;;4.57;1.90;;;;;;;11.85;90.58;95482.94;5067876;28;20189;-78
2024/04/05 06:14:00;;;;;;;4.57;2.23;;;;;;;12.07;89.54;95476.34;5064770;28;20185;-79
2024/04/05 06:16:25;;;;;;;5.53;2.13;;;;;;;12.23;88.73;95479.97;5080048;28;20208;-79
2024/04/05 06:18:50;;;;;;;6.03;1.90;;;;;;;12.20;88.59;95491.53;5064538;28;20205;-79
2024/04/05 06:21:16;;;;;;;6.37;2.27;;;;;;;12.29;88.76;95487.16;5090454;28;20180;-79
2024/04/05 06:23:41;;;;;;;5.10;2.30;;;;;;;12.48;88.17;95489.47;5095030;28;20200;-78
2024/04/05 06:26:07;;;;;;;5.03;2.00;;;;;;;12.52;87.73;95480.34;5095539;28;20181;-80
2024/04/05 06:28:33;;;;;;;7.23;2.30;;;;;;;12.83;86.50;95471.91;5060009;28;20298;-81
2024/04/05 06:31:00;;;;;;;3.50;1.80;;;;;;;12.84;86.46;95473.53;5055548;28;20189;-81
2024/04/05 06:33:26;;;;;;;3.40;1.60;;;;;;;13.24;85.12;95476.13;5076495;28;20597;-81
2024/04/05 06:35:59;;;;;;;4.10;1.50;;;;;;;13.59;83.41;95466.25;5080077;28;20264;-81
2024/04/05 06:38:25;;;;;;;5.00;1.80;;;;;;;13.74;81.99;95482.84;5078590;28;20222;-81
2024/04/05 06:40:58;;;;;;;2.63;1.50;;;;;;;13.99;80.34;95474.94;5079617;28;20668;-81
2024/04/05 06:43:30;;;;;;;4.20;1.40;;;;;;;14.13;80.17;95472.44;5062948;28;20195;-81
2024/04/05 06:45:59;;;;;;;2.73;1.70;;;;;;;14.38;79.22;95467.84;5076259;28;20189;-81
2024/04/05 06:48:25;;;;;;;3.57;1.50;;;;;;;14.50;78.44;95462.28;5077300;28;20292;-81
2024/04/05 06:50:50;;;;;;;2.07;1.50;;;;;;;14.56;77.09;95464.19;5049640;28;20275;-80
2024/04/05 06:53:20;;;;;;;4.87;2.03;;;;;;;14.71;77.47;95462.44;5081052;28;20249;-81
2024/04/05 06:55:48;;;;;;;3.90;1.70;;;;;;;14.89;76.99;95459.53;5082709;28;20189;-80
2024/04/05 06:58:14;;;;;;;5.60;2.00;;;;;;;14.94;77.01;95463.25;5083428;28;20195;-80
2024/04/05 07:00:43;;;;;;;5.07;1.67;;;;;;;15.14;76.98;95460.13;5074495;28;20212;-83
2024/04/05 07:03:09;;;;;;;5.23;1.60;;;;;;;15.02;75.75;95449.28;5074848;28;20196;-81
2024/04/05 07:05:34;;;;;;;2.97;1.63;;;;;;;15.01;75.91;95456.31;5055191;28;20189;-80
2024/04/05 07:08:00;;;;;;;7.20;1.97;;;;;;;15.11;75.56;95463.13;5065887;28;20277;-82
2024/04/05 07:10:26;;;;;;;3.47;1.90;;;;;;;15.08;75.44;95468.69;5054020;28;20185;-83
2024/04/05 07:12:52;;;;;;;5.63;1.67;;;;;;;15.39;74.77;95465.94;5075285;28;20189;-82
2024/04/05 07:15:19;;;;;;;3.93;1.40;;;;;;;15.33;75.27;95457.00;5077469;28;20970;-82
2024/04/05 07:17:48;;;;;;;3.07;1.93;;;;;;;15.55;74.68;95460.56;5053953;28;20192;-82
2024/04/05 07:20:15;;;;;;;3.47;1.30;;;;;;;15.56;73.91;95454.31;5080654;28;20711;-82
2024/04/05 07:22:40;;;;;;;4.43;1.60;;;;;;;15.59;73.39;95449.53;5065312;28;20206;-82
2024/04/05 07:25:07;;;;;;;2.33;1.40;;;;;;;15.56;74.21;95447.28;5059443;28;20193;-81
2024/04/05 07:27:34;;;;;;;4.90;1.60;;;;;;;15.43;73.56;95447.06;5059186;28;20212;-80
2024/04/05 07:29:59;;;;;;;2.80;1.57;;;;;;;15.50;72.02;95434.91;5058583;28;20705;-82
2024/04/05 07:32:24;;;;;;;4.50;1.77;;;;;;;15.66;72.93;95433.13;5065959;28;20196;-81
2024/04/05 07:34:50;;;;;;;3.80;1.50;;;;;;;15.74;72.26;95446.13;5073584;28;20193;-82
2024/04/05 07:37:15;;;;;;;8.60;1.93;;;;;;;15.57;71.80;95438.44;5066901;28;20595;-81
2024/04/05 07:39:42;;;;;;;3.03;1.50;;;;;;;15.70;71.74;95444.84;5074640;28;20255;-81
2024/04/05 07:42:08;;;;;;;5.87;1.80;;;;;;;15.91;71.25;95449.38;5077821;28;20184;-81
2024/04/05 07:44:33;;;;;;;3.07;1.37;;;;;;;16.09;71.22;95452.41;5056923;28;20645;-81
2024/04/05 07:46:58;;;;;;;4.17;1.60;;;;;;;15.99;71.55;95450.06;5087801;28;20181;-81
2024/04/05 07:49:24;;;;;;;5.30;1.50;;;;;;;16.08;71.06;95448.16;5053691;28;20234;-81
2024/04/05 07:51:49;;;;;;;4.27;1.60;;;;;;;16.06;71.16;95452.75;5072541;28;20606;-81
2024/04/05 07:54:15;;;;;;;5.97;2.57;;;;;;;15.24;70.18;95464.13;5059408;28;20192;-80
2024/04/05 07:56:40;;;;;;;2.83;1.53;;;;;;;15.49;70.12;95463.88;5065789;28;20504;-81
2024/04/05 07:59:06;;;;;;;4.53;1.60;;;;;;;15.38;70.29;95467.75;5053699;28;20239;-81
2024/04/05 08:01:31;;;;;;;4.07;1.40;;;;;;;15.73;70.12;95458.41;5056663;28;20658;-81
2024/04/05 08:03:56;;;;;;;4.00;1.40;;;;;;;15.68;70.44;95446.84;5075618;28;20263;-81
2024/04/05 08:06:22;;;;;;;6.07;1.40;;;;;;;15.41;71.27;95435.97;5066031;28;20180;-81
2024/04/05 08:08:47;;;;;;;2.47;1.23;;;;;;;15.70;70.48;95442.22;5073094;28;20567;-81
2024/04/05 08:11:12;;;;;;;4.30;1.50;;;;;;;15.91;70.18;95452.00;5074374;28;20680;-80
2024/04/05 08:13:38;;;;;;;2.20;1.33;;;;;;;15.75;69.17;95453.78;5054127;28;20520;-81
2024/04/05 08:16:06;;;;;;;5.30;1.90;;;;;;;16.13;68.66;95456.28;5071604;28;20556;-81
2024/04/05 08:18:32;;;;;;;6.60;1.80;;;;;;;16.23;67.70;95453.34;5057901;28;20229;-81
2024/04/05 08:20:57;;;;;;;3.87;1.70;;;;;;;16.23;65.63;95455.97;5054891;28;20678;-81
2024/04/05 08:23:22;;;;;;;2.33;1.30;;;;;;;16.39;65.21;95468.84;5076413;28;20176;-81
2024/04/05 08:25:47;;;;;;;4.60;1.38;;;;;;;16.63;64.57;95458.03;5068786;28;20241;-80
2024/04/05 08:28:13;;;;;;;2.53;1.37;;;;;;;17.05;63.31;95461.66;5082388;28;20337;-80
2024/04/05 08:30:38;;;;;;;4.30;1.20;;;;;;;16.92;61.85;95448.41;5067751;28;20178;-80
2024/04/05 08:33:05;;;;;;;3.22;1.77;;;;;;;16.67;61.78;95456.63;5065043;28;20646;-80
2024/04/05 08:35:31;;;;;;;1.98;1.10;;;;;;;16.77;62.63;95456.34;5059156;28;20200;-81
2024/04/05 08:38:03;;;;;;;4.55;1.23;;;;;;;16.61;62.48;95459.22;5055677;28;20193;-81
2024/04/05 08:40:28;;;;;;;3.15;1.60;;;;;;;16.84;62.17;95459.03;5080645;28;20200;-81
2024/04/05 08:42:57;;;;;;;2.55;1.10;;;;;;;16.90;63.27;95459.09;5047721;28;20334;-81
2024/04/05 08:45:24;;;;;;;3.97;1.60;;;;;;;16.81;63.07;95452.38;5082300;28;20186;-81
2024/04/05 08:47:51;;;;;;;1.80;1.15;;;;;;;16.77;63.95;95460.78;5076230;28;20249;-81
2024/04/05 08:50:17;;;;;;;4.32;1.38;;;;;;;17.00;63.89;95458.78;5059394;28;20201;-81
2024/04/05 08:52:43;;;;;;;2.92;1.25;;;;;;;17.16;63.75;95455.06;5078598;28;20188;-81
2024/04/05 08:55:08;;;;;;;2.67;1.20;;;;;;;17.29;63.66;95463.03;5086322;28;20235;-81
2024/04/05 08:57:39;;;;;;;5.45;1.50;;;;;;;17.39;64.26;95454.81;5048814;28;20209;-81
2024/04/05 09:00:06;;;;;;;4.07;1.15;;;;;;;17.33;63.14;95452.97;5077107;28;20217;-81
2024/04/05 09:02:33;;;;;;;3.40;1.60;;;;;;;17.31;63.27;95452.34;5093074;28;20234;-82
2024/04/05 09:05:03;;;;;;;1.75;1.10;;;;;;;17.24;64.26;95455.75;5059169;28;20723;-79
2024/04/05 09:07:29;;;;;;;2.30;1.15;;;;;;;17.48;63.19;95448.41;5071453;28;20180;-81
2024/04/05 09:09:57;;;;;;;3.35;1.40;;;;;;;17.74;62.90;95437.28;5083295;28;20209;-81
2024/04/05 09:12:22;;;;;;;3.28;1.20;;;;;;;17.84;62.25;95435.09;5071555;28;20197;-81
2024/04/05 09:14:58;;;;;;;3.22;1.45;;;;;;;17.97;61.40;95437.81;5066960;28;20231;-83
2024/04/05 09:17:23;;;;;;;3.15;1.50;;;;;;;18.03;61.43;95433.59;5083957;28;20543;-81
2024/04/05 09:19:48;;;;;;;3.55;1.23;;;;;;;18.10;61.01;95429.16;5079376;28;20228;-81
2024/04/05 09:22:21;;;;;;;3.10;1.10;;;;;;;18.09;60.73;95424.91;5058336;28;20188;-81
2024/04/05 09:24:46;;;;;;;3.55;1.50;;;;;;;17.89;60.41;95431.91;5091177;28;20192;-81
2024/04/05 09:27:17;;;;;;;3.53;1.42;;;;;;;18.15;60.65;95434.66;5097197;28;20180;-80
2024/04/05 09:29:42;;;;;;;3.00;1.33;;;;;;;18.37;59.75;95438.75;5062911;28;20244;-81
2024/04/05 09:32:19;;;;;;;4.18;1.45;;;;;;;18.51;60.17;95436.16;5072288;28;20177;-81
2024/04/05 09:34:46;;;;;;;2.90;1.30;;;;;;;18.30;59.89;95437.13;5072908;28;20187;-80
2024/04/05 09:37:14;;;;;;;4.00;1.48;;;;;;;18.82;58.73;95439.09;5085514;28;20195;-80
2024/04/05 09:39:40;;;;;;;4.25;1.30;;;;;;;18.65;58.70;95436.03;5091449;28;20242;-81
2024/04/05 09:42:05;;;;;;;3.67;1.30;;;;;;;18.77;59.19;95436.22;5092473;28;20177;-80
2024/04/05 09:44:32;;;;;;;7.00;1.40;;;;;;;18.92;58.37;95423.69;5094502;28;20198;-80
2024/04/05 09:46:58;;;;;;;5.13;1.30;;;;;;;18.83;57.88;95430.16;5062257;28;20650;-81
2024/04/05 09:49:23;;;;;;;3.75;1.27;;;;;;;19.06;58.41;95424.50;5071502;28;20212;-81
2024/04/05 09:51:52;;;;;;;4.18;1.38;;;;;;;19.09;57.15;95420.66;5059886;28;20192;-80
2024/04/05 09:54:19;;;;;;;3.10;1.15;;;;;;;19.27;57.84;95420.84;5088128;28;20645;-82
2024/04/05 09:56:45;;;;;;;2.55;1.20;;;;;;;19.23;57.84;95420.44;5057568;28;20191;-81
2024/04/05 09:59:29;;;;;;;3.05;1.30;;;;;;;19.19;57.30;95421.88;5092515;28;20216;-82
2024/04/05 10:01:55;;;;;;;4.05;1.25;;;;;;;19.35;57.02;95418.00;5085650;28;20207;-82
2024/04/05 10:04:21;;;;;;;3.63;1.30;;;;;;;19.12;56.78;95412.34;5081970;28;20188;-82
2024/04/05 10:06:47;;;;;;;2.47;1.38;;;;;;;19.48;56.88;95396.91;5074097;28;20184;-82
2024/04/05 10:09:16;;;;;;;2.45;1.00;;;;;;;19.47;55.85;95399.75;5061203;28;20282;-81
2024/04/05 10:11:50;;;;;;;2.70;1.38;;;;;;;19.76;55.80;95401.09;5084983;28;20183;-81
2024/04/05 10:14:21;;;;;;;2.30;1.40;;;;;;;20.11;56.27;95395.50;5058330;28;20184;-81
2024/04/05 10:16:50;;;;;;;2.08;1.00;;;;;;;20.09;54.62;95398.34;5072851;28;20250;-81
2024/04/05 10:19:16;;;;;;;1.73;0.75;;;;;;;19.91;53.45;95388.50;5085103;28;20584;-80
2024/04/05 10:21:45;;;;;;;3.65;1.05;;;;;;;20.26;54.80;95386.28;5066796;28;20234;-80
2024/04/05 10:24:11;;;;;;;3.70;1.30;;;;;;;20.46;54.47;95393.31;5072573;28;20223;-81
2024/04/05 10:26:37;;;;;;;2.50;1.20;;;;;;;20.69;52.09;95383.00;5091585;28;20650;-81
2024/04/05 10:29:04;;;;;;;5.22;1.30;;;;;;;20.57;51.22;95384.69;5065779;28;20205;-81
2024/04/05 10:31:34;;;;;;;2.97;1.23;;;;;;;20.40;51.41;95386.19;5055490;28;20181;-81
2024/04/05 10:34:03;;;;;;;3.95;1.35;;;;;;;20.89;51.57;95380.22;5081131;28;20230;-81
2024/04/05 10:36:30;;;;;;;3.72;1.15;;;;;;;21.10;50.96;95368.44;5080017;28;20627;-81
2024/04/05 10:38:56;;;;;;;2.78;1.20;;;;;;;21.05;50.07;95371.75;5076709;28;20208;-80
2024/04/05 10:41:21;;;;;;;5.88;1.90;;;;;;;21.11;51.49;95370.06;5081863;28;20223;-81
2024/04/05 10:43:46;;;;;;;3.53;1.20;;;;;;;20.81;50.43;95370.72;5077610;28;20192;-81
2024/04/05 10:46:13;;;;;;;2.70;1.10;;;;;;;21.05;51.02;95376.22;5077754;28;20184;-81
2024/04/05 10:48:39;;;;;;;1.98;1.20;;;;;;;21.07;50.28;95369.69;5068891;28;20673;-81
2024/04/05 10:51:05;;;;;;;3.38;1.25;;;;;;;20.72;50.95;95369.38;5061098;28;20246;-81
2024/04/05 10:53:30;;;;;;;2.25;1.40;;;;;;;21.00;50.37;95373.41;5079275;28;20189;-81
2024/04/05 10:55:56;;;;;;;4.40;1.20;;;;;;;21.08;49.64;95366.03;5059254;28;20265;-83
2024/04/05 10:58:21;;;;;;;1.77;1.10;;;;;;;21.07;49.50;95368.88;5079932;28;20268;-81
2024/04/05 11:00:47;;;;;;;4.30;1.10;;;;;;;20.95;48.78;95366.16;5071608;28;20719;-81
2024/04/05 11:03:16;;;;;;;2.30;1.00;;;;;;;20.96;47.10;95372.25;5078262;28;20183;-81
2024/04/05 11:05:42;;;;;;;2.05;0.90;;;;;;;21.02;46.23;95361.59;5083601;28;20181;-81
2024/04/05 11:08:10;;;;;;;1.58;0.90;;;;;;;21.64;46.81;95378.28;5076481;28;20181;-80
2024/04/05 11:10:39;;;;;;;1.58;0.85;;;;;;;21.29;44.76;95361.38;5089389;28;20212;-82
2024/04/05 11:13:18;;;;;;;5.00;1.40;;;;;;;21.76;44.12;95367.81;5056702;28;20181;-81
2024/04/05 11:15:44;;;;;;;1.13;0.90;;;;;;;21.77;42.94;95367.56;5076288;28;20211;-81
2024/04/05 11:18:10;;;;;;;2.53;0.57;;;;;;;21.11;41.40;95367.41;5078656;28;20218;-81
2024/04/05 11:20:39;;;;;;;1.15;0.75;;;;;;;21.13;42.36;95374.13;5087755;28;20233;-81
2024/04/05 11:23:06;;;;;;;1.95;0.85;;;;;;;21.56;42.34;95367.22;5090500;28;20188;-81
2024/04/05 11:25:32;;;;;;;1.98;0.77;;;;;;;21.56;41.52;95364.59;5073809;28;20266;-80
2024/04/05 11:27:57;;;;;;;3.08;1.00;;;;;;;21.97;41.97;95358.59;5083340;28;20238;-80